Time;durP1;ratioP1;P1;durP2;ratioP2;P2;SDS_P1;SDS_P2;PMS_P1;PMS_P2;Temp;Humidity;BMP_temperature;BMP_pressure;BME280_temperature;BME280_humidity;BME280_pressure;Samples;Min_cycle;Max_cycle;Signal;HPM_P1;HPM_P2
2022/12/07 00:01:06;;;;;;;13.68;7.15;;;;;;;;;;4997503;28;98628;-72
2022/12/07 00:03:32;;;;;;;16.23;6.97;;;;;;;;;;4996650;28;99286;-73
2022/12/07 00:05:59;;;;;;;17.92;7.22;;;;;;;;;;4996421;28;98693;-73
2022/12/07 00:08:26;;;;;;;8.73;6.45;;;;;;;;;;4985459;28;99270;-73
2022/12/07 00:10:52;;;;;;;15.73;6.40;;;;;;;;;;4996432;28;99043;-73
2022/12/07 00:13:18;;;;;;;9.52;7.18;;;;;;;;;;4997414;28;98546;-72
2022/12/07 00:15:45;;;;;;;13.50;7.32;;;;;;;;;;4989081;28;99436;-72
2022/12/07 00:18:11;;;;;;;15.43;7.38;;;;;;;;;;5001075;28;98366;-72
2022/12/07 00:20:37;;;;;;;7.38;6.68;;;;;;;;;;4992059;28;99355;-72
2022/12/07 00:23:04;;;;;;;10.10;6.80;;;;;;;;;;5000318;28;100276;-73
2022/12/07 00:25:30;;;;;;;8.00;7.20;;;;;;;;;;4989459;28;98371;-72
2022/12/07 00:27:56;;;;;;;21.30;7.90;;;;;;;;;;4990199;28;99532;-72
2022/12/07 00:30:23;;;;;;;15.48;7.85;;;;;;;;;;4989233;28;99056;-72
2022/12/07 00:32:49;;;;;;;16.95;9.98;;;;;;;;;;5000207;28;99750;-73
2022/12/07 00:35:16;;;;;;;18.40;7.47;;;;;;;;;;4991726;28;100276;-73
2022/12/07 00:37:42;;;;;;;14.27;8.48;;;;;;;;;;4988273;28;98461;-72
2022/12/07 00:40:09;;;;;;;16.73;8.23;;;;;;;;;;4985550;28;98579;-72
2022/12/07 00:42:35;;;;;;;13.00;7.30;;;;;;;;;;4992684;28;99146;-72
2022/12/07 00:45:01;;;;;;;8.38;7.22;;;;;;;;;;5002341;28;98262;-72
2022/12/07 00:47:28;;;;;;;13.85;7.45;;;;;;;;;;4989685;28;98661;-72
2022/12/07 00:49:54;;;;;;;16.65;7.15;;;;;;;;;;4995967;28;100208;-72
2022/12/07 00:52:21;;;;;;;12.25;6.88;;;;;;;;;;5008034;28;98447;-72
2022/12/07 00:54:47;;;;;;;13.52;7.03;;;;;;;;;;4993530;28;99746;-72
2022/12/07 00:57:13;;;;;;;11.63;7.72;;;;;;;;;;4999213;28;98520;-72
2022/12/07 00:59:40;;;;;;;19.08;7.90;;;;;;;;;;4991729;28;98649;-72
2022/12/07 01:02:06;;;;;;;15.13;6.90;;;;;;;;;;5000481;28;99213;-73
2022/12/07 01:04:34;;;;;;;12.55;6.50;;;;;;;;;;5008266;28;98452;-72
2022/12/07 01:07:00;;;;;;;9.73;5.78;;;;;;;;;;5001788;28;100126;-72
2022/12/07 01:09:26;;;;;;;12.10;5.95;;;;;;;;;;4996418;28;99148;-72
2022/12/07 01:11:53;;;;;;;16.58;6.50;;;;;;;;;;4992166;28;98463;-73
2022/12/07 01:14:19;;;;;;;12.38;6.07;;;;;;;;;;4997001;28;98597;-74
2022/12/07 01:16:46;;;;;;;13.15;5.28;;;;;;;;;;5007194;28;99176;-72
2022/12/07 01:19:12;;;;;;;12.77;5.65;;;;;;;;;;4988593;28;98710;-72
2022/12/07 01:21:38;;;;;;;8.75;5.20;;;;;;;;;;4994556;28;99013;-74
2022/12/07 01:24:06;;;;;;;14.80;6.00;;;;;;;;;;4996401;28;98333;-72
2022/12/07 01:26:32;;;;;;;10.20;5.07;;;;;;;;;;4997564;28;98940;-72
2022/12/07 01:29:00;;;;;;;17.73;5.28;;;;;;;;;;5003528;28;99060;-72
2022/12/07 01:31:27;;;;;;;9.73;5.10;;;;;;;;;;4999428;28;98382;-72
2022/12/07 01:33:55;;;;;;;10.90;4.88;;;;;;;;;;5003770;28;99511;-72
2022/12/07 01:36:23;;;;;;;15.10;5.10;;;;;;;;;;4999121;28;101676;-74
2022/12/07 01:38:53;;;;;;;16.58;5.05;;;;;;;;;;4992715;28;101048;-73
2022/12/07 01:41:20;;;;;;;9.30;4.65;;;;;;;;;;4999259;28;99100;-73
2022/12/07 01:44:05;;;;;;;10.65;4.60;;;;;;;;;;4997116;28;98405;-73
2022/12/07 01:46:32;;;;;;;10.00;4.30;;;;;;;;;;5002612;28;99573;-73
2022/12/07 01:48:59;;;;;;;17.25;4.88;;;;;;;;;;5002425;28;99088;-72
2022/12/07 01:51:26;;;;;;;8.27;4.35;;;;;;;;;;4987968;28;98294;-73
2022/12/07 01:53:53;;;;;;;5.75;3.83;;;;;;;;;;4997179;28;98807;-72
2022/12/07 01:56:22;;;;;;;11.23;4.88;;;;;;;;;;4987581;28;100060;-72
2022/12/07 01:58:48;;;;;;;10.00;4.10;;;;;;;;;;4994272;28;99844;-72
2022/12/07 02:01:15;;;;;;;11.05;5.20;;;;;;;;;;5007939;28;99954;-72
2022/12/07 02:03:43;;;;;;;11.00;4.63;;;;;;;;;;5005072;28;98287;-72
2022/12/07 02:06:11;;;;;;;6.88;3.53;;;;;;;;;;4992269;28;99115;-71
2022/12/07 02:08:37;;;;;;;8.13;4.20;;;;;;;;;;4999373;28;100081;-72
2022/12/07 02:11:05;;;;;;;11.85;4.03;;;;;;;;;;5002331;28;98454;-72
2022/12/07 02:13:32;;;;;;;6.78;3.53;;;;;;;;;;4996440;28;99331;-72
2022/12/07 02:16:17;;;;;;;14.73;4.05;;;;;;;;;;4987956;28;99045;-72
2022/12/07 02:18:43;;;;;;;9.15;4.25;;;;;;;;;;4988074;28;99159;-72
2022/12/07 02:21:20;;;;;;;6.93;4.13;;;;;;;;;;4994946;28;98735;-73
2022/12/07 02:24:05;;;;;;;15.50;3.08;;;;;;;;;;4997415;28;98294;-72
2022/12/07 02:26:43;;;;;;;7.68;2.92;;;;;;;;;;4993731;28;99488;-72
2022/12/07 02:29:14;;;;;;;16.48;4.28;;;;;;;;;;5006716;28;99153;-72
2022/12/07 02:31:45;;;;;;;7.13;3.15;;;;;;;;;;4991732;28;98444;-72
2022/12/07 02:34:16;;;;;;;6.60;3.05;;;;;;;;;;4998024;28;98753;-72
2022/12/07 02:36:46;;;;;;;15.98;3.67;;;;;;;;;;4998831;28;99016;-73
2022/12/07 02:39:17;;;;;;;8.55;3.03;;;;;;;;;;4988162;28;98526;-73
2022/12/07 02:41:46;;;;;;;10.40;3.03;;;;;;;;;;4987480;28;98736;-73
2022/12/07 02:44:14;;;;;;;7.75;2.78;;;;;;;;;;4998379;28;99115;-73
2022/12/07 02:46:46;;;;;;;12.85;3.15;;;;;;;;;;5004521;28;98699;-72
2022/12/07 02:49:12;;;;;;;17.73;3.90;;;;;;;;;;4998460;28;100180;-74
2022/12/07 02:51:40;;;;;;;7.65;3.38;;;;;;;;;;4998882;28;98632;-72
2022/12/07 02:54:14;;;;;;;6.80;3.38;;;;;;;;;;5001799;28;98969;-72
2022/12/07 02:56:43;;;;;;;8.05;3.42;;;;;;;;;;4997286;28;100091;-72
2022/12/07 02:59:15;;;;;;;12.40;4.13;;;;;;;;;;5003130;28;98338;-72
2022/12/07 03:02:00;;;;;;;5.50;3.38;;;;;;;;;;5000562;28;98897;-73
2022/12/07 03:04:33;;;;;;;12.07;3.83;;;;;;;;;;4987557;28;99943;-73
2022/12/07 03:07:05;;;;;;;16.92;3.50;;;;;;;;;;4990287;28;98250;-73
2022/12/07 03:09:35;;;;;;;9.57;3.55;;;;;;;;;;5002893;28;99395;-72
2022/12/07 03:12:14;;;;;;;7.00;3.55;;;;;;;;;;5005556;28;98426;-72
2022/12/07 03:14:57;;;;;;;4.50;3.15;;;;;;;;;;4997884;28;98654;-72
2022/12/07 03:17:26;;;;;;;8.27;3.67;;;;;;;;;;4999893;28;99995;-73
2022/12/07 03:19:54;;;;;;;15.90;3.22;;;;;;;;;;4992367;28;98252;-72
2022/12/07 03:22:21;;;;;;;4.97;2.90;;;;;;;;;;4995247;28;98698;-72
2022/12/07 03:24:52;;;;;;;8.35;3.05;;;;;;;;;;4998852;28;100097;-72
2022/12/07 03:27:21;;;;;;;6.63;3.53;;;;;;;;;;5002191;28;98307;-72
2022/12/07 03:29:49;;;;;;;9.30;3.60;;;;;;;;;;4998388;28;99896;-72
2022/12/07 03:32:23;;;;;;;7.85;3.40;;;;;;;;;;5001963;28;98277;-74
2022/12/07 03:34:53;;;;;;;14.10;3.22;;;;;;;;;;5005752;28;99841;-72
2022/12/07 03:37:42;;;;;;;10.82;3.05;;;;;;;;;;4992062;28;99276;-72
2022/12/07 03:40:15;;;;;;;10.48;2.88;;;;;;;;;;4978379;28;100339;-73
2022/12/07 03:42:42;;;;;;;5.28;2.55;;;;;;;;;;4986511;28;99845;-72
2022/12/07 03:45:08;;;;;;;7.50;3.00;;;;;;;;;;4997857;28;99942;-73
2022/12/07 03:47:40;;;;;;;11.38;2.53;;;;;;;;;;4987245;28;98238;-72
2022/12/07 03:50:10;;;;;;;8.20;3.22;;;;;;;;;;5000392;28;99948;-72
2022/12/07 03:52:58;;;;;;;10.48;3.10;;;;;;;;;;4996930;28;98415;-72
2022/12/07 03:55:27;;;;;;;12.27;3.67;;;;;;;;;;4990629;28;99730;-72
2022/12/07 03:57:56;;;;;;;8.82;2.60;;;;;;;;;;4990122;28;100167;-72
2022/12/07 04:00:22;;;;;;;8.32;3.00;;;;;;;;;;4990089;28;98637;-74
2022/12/07 04:02:51;;;;;;;6.30;2.95;;;;;;;;;;4994971;28;98576;-73
2022/12/07 04:05:18;;;;;;;8.57;2.85;;;;;;;;;;5003310;28;99199;-71
2022/12/07 04:07:44;;;;;;;7.80;3.08;;;;;;;;;;4995057;28;98303;-72
2022/12/07 04:10:11;;;;;;;9.77;2.83;;;;;;;;;;4995230;28;99769;-72
2022/12/07 04:12:37;;;;;;;9.85;2.70;;;;;;;;;;5008435;28;99011;-72
2022/12/07 04:15:04;;;;;;;9.20;3.38;;;;;;;;;;4997732;28;99318;-74
2022/12/07 04:17:31;;;;;;;9.75;2.65;;;;;;;;;;4993421;28;100283;-73
2022/12/07 04:19:57;;;;;;;10.45;2.58;;;;;;;;;;5000290;28;98279;-73
2022/12/07 04:22:24;;;;;;;21.27;3.35;;;;;;;;;;5008498;28;99321;-73
2022/12/07 04:24:50;;;;;;;13.55;3.20;;;;;;;;;;5004974;28;99213;-73
2022/12/07 04:27:16;;;;;;;12.25;2.80;;;;;;;;;;4989426;28;98314;-73
2022/12/07 04:29:43;;;;;;;13.48;2.63;;;;;;;;;;5008430;28;98681;-74
2022/12/07 04:32:09;;;;;;;8.25;3.00;;;;;;;;;;5008615;28;99111;-74
2022/12/07 04:34:36;;;;;;;5.18;2.20;;;;;;;;;;5002449;28;98543;-72
2022/12/07 04:37:02;;;;;;;7.47;3.20;;;;;;;;;;5003689;28;99538;-73
2022/12/07 04:39:29;;;;;;;13.30;3.10;;;;;;;;;;4998508;28;98713;-72
2022/12/07 04:41:56;;;;;;;7.15;2.65;;;;;;;;;;4993684;28;99785;-73
2022/12/07 04:44:23;;;;;;;9.05;2.53;;;;;;;;;;4994702;28;100008;-73
2022/12/07 04:46:50;;;;;;;8.75;2.58;;;;;;;;;;4998949;28;98664;-72
2022/12/07 04:49:17;;;;;;;8.35;2.50;;;;;;;;;;5002042;28;99339;-72
2022/12/07 04:51:44;;;;;;;9.52;2.88;;;;;;;;;;4997918;28;98982;-72
2022/12/07 04:54:10;;;;;;;7.63;2.42;;;;;;;;;;4998123;28;98453;-72
2022/12/07 04:56:37;;;;;;;9.60;2.63;;;;;;;;;;5000825;28;99303;-73
2022/12/07 04:59:04;;;;;;;7.93;2.33;;;;;;;;;;4997057;28;98627;-72
2022/12/07 05:01:30;;;;;;;5.40;2.50;;;;;;;;;;4997513;28;99478;-72
2022/12/07 05:03:57;;;;;;;9.02;2.38;;;;;;;;;;5003420;28;99292;-72
2022/12/07 05:06:23;;;;;;;10.80;2.38;;;;;;;;;;5004320;28;98848;-73
2022/12/07 05:08:50;;;;;;;8.90;2.72;;;;;;;;;;4994362;28;99278;-72
2022/12/07 05:14:02;;;;;;;4.22;1.80;;;;;;;;;;4998827;28;98725;-74
2022/12/07 05:16:29;;;;;;;7.15;1.77;;;;;;;;;;4999885;28;98564;-73
2022/12/07 05:18:55;;;;;;;7.00;1.98;;;;;;;;;;5006111;28;100238;-72
2022/12/07 05:21:22;;;;;;;4.47;1.80;;;;;;;;;;4996559;28;98714;-72
2022/12/07 05:23:48;;;;;;;4.65;2.15;;;;;;;;;;5000659;28;99306;-72
2022/12/07 05:26:15;;;;;;;5.85;1.83;;;;;;;;;;4996916;28;98521;-72
2022/12/07 05:28:41;;;;;;;3.50;1.77;;;;;;;;;;5004879;28;98691;-72
2022/12/07 05:31:07;;;;;;;3.92;1.70;;;;;;;;;;5001432;28;98918;-72
2022/12/07 05:33:34;;;;;;;11.35;2.67;;;;;;;;;;4998651;28;98665;-72
2022/12/07 05:36:05;;;;;;;6.47;1.98;;;;;;;;;;5000021;28;98898;-73
2022/12/07 05:38:32;;;;;;;3.33;1.65;;;;;;;;;;4999409;28;99050;-73
2022/12/07 05:41:02;;;;;;;8.50;1.95;;;;;;;;;;4991217;28;98201;-73
2022/12/07 05:43:29;;;;;;;7.85;1.98;;;;;;;;;;4994723;28;100944;-73
2022/12/07 05:45:56;;;;;;;6.55;2.03;;;;;;;;;;4998637;28;99234;-73
2022/12/07 05:48:22;;;;;;;10.20;1.90;;;;;;;;;;4987387;28;98518;-73
2022/12/07 05:50:49;;;;;;;5.95;2.05;;;;;;;;;;4997179;28;100478;-73
2022/12/07 05:53:16;;;;;;;6.00;2.10;;;;;;;;;;5000261;28;99127;-73
2022/12/07 05:55:48;;;;;;;6.90;1.77;;;;;;;;;;5006743;28;99670;-73
2022/12/07 06:00:59;;;;;;;7.22;1.70;;;;;;;;;;5003961;28;99511;-73
2022/12/07 06:03:27;;;;;;;9.23;1.77;;;;;;;;;;4991712;28;100345;-73
2022/12/07 06:05:53;;;;;;;11.30;2.10;;;;;;;;;;4992715;28;98275;-73
2022/12/07 06:08:21;;;;;;;5.60;2.03;;;;;;;;;;4991807;28;99743;-73
2022/12/07 06:12:33;;;;;;;5.38;1.83;;;;;;;;;;4999444;28;100898;-73
2022/12/07 06:13:34;;;;;;;7.10;2.42;;;;;;;;;;4988495;28;98943;-73
2022/12/07 06:16:00;;;;;;;9.02;3.08;;;;;;;;;;4994355;28;98628;-73
2022/12/07 06:18:27;;;;;;;8.20;2.53;;;;;;;;;;4995241;28;98972;-73
2022/12/07 06:20:53;;;;;;;5.43;1.80;;;;;;;;;;4999355;28;98248;-73
2022/12/07 06:23:19;;;;;;;5.63;2.08;;;;;;;;;;5008360;28;99671;-72
2022/12/07 06:25:46;;;;;;;11.95;2.38;;;;;;;;;;4992051;28;98223;-73
2022/12/07 06:28:12;;;;;;;11.73;1.92;;;;;;;;;;5000546;28;99561;-72
2022/12/07 06:30:38;;;;;;;11.52;2.58;;;;;;;;;;4987230;28;100033;-73
2022/12/07 06:33:05;;;;;;;9.60;2.20;;;;;;;;;;4996573;28;98285;-73
2022/12/07 06:35:32;;;;;;;10.07;2.80;;;;;;;;;;4989308;28;98609;-73
2022/12/07 06:37:59;;;;;;;12.27;2.13;;;;;;;;;;4998596;28;99168;-72
2022/12/07 06:40:25;;;;;;;5.55;2.40;;;;;;;;;;4998271;28;98292;-73
2022/12/07 06:42:51;;;;;;;14.70;2.75;;;;;;;;;;4990520;28;98565;-73
2022/12/07 06:45:18;;;;;;;12.20;2.78;;;;;;;;;;5003317;28;99159;-72
2022/12/07 06:47:44;;;;;;;10.88;2.60;;;;;;;;;;4987341;28;98918;-73
2022/12/07 06:50:12;;;;;;;12.10;2.47;;;;;;;;;;4986809;28;99080;-72
2022/12/07 06:52:38;;;;;;;4.20;2.38;;;;;;;;;;4994878;28;98278;-73
2022/12/07 06:55:05;;;;;;;6.32;2.35;;;;;;;;;;4998093;28;99504;-72
2022/12/07 06:57:31;;;;;;;14.63;3.47;;;;;;;;;;5001001;28;100255;-73
2022/12/07 06:59:58;;;;;;;6.35;2.78;;;;;;;;;;4995422;28;99148;-73
2022/12/07 07:02:24;;;;;;;13.25;3.45;;;;;;;;;;5007366;28;99351;-73
2022/12/07 07:04:51;;;;;;;12.43;3.20;;;;;;;;;;5003836;28;99232;-72
2022/12/07 07:07:17;;;;;;;12.23;2.80;;;;;;;;;;5005594;28;100329;-73
2022/12/07 07:09:43;;;;;;;8.57;2.85;;;;;;;;;;5002862;28;99534;-72
2022/12/07 07:12:10;;;;;;;11.48;3.75;;;;;;;;;;5003387;28;98279;-71
2022/12/07 07:14:36;;;;;;;10.73;2.67;;;;;;;;;;4995058;28;99794;-73
2022/12/07 07:17:02;;;;;;;8.57;2.92;;;;;;;;;;4988760;28;99062;-73
2022/12/07 07:19:29;;;;;;;5.85;2.85;;;;;;;;;;4996965;28;100724;-73
2022/12/07 07:21:55;;;;;;;11.73;3.58;;;;;;;;;;4999215;28;99723;-72
2022/12/07 07:24:22;;;;;;;4.50;2.30;;;;;;;;;;4994244;28;100023;-73
2022/12/07 07:26:48;;;;;;;14.13;3.70;;;;;;;;;;5004072;28;99840;-73
2022/12/07 07:29:14;;;;;;;8.02;2.88;;;;;;;;;;5009419;28;98886;-73
2022/12/07 07:31:41;;;;;;;6.90;2.47;;;;;;;;;;4994953;28;98342;-72
2022/12/07 07:34:07;;;;;;;6.53;2.60;;;;;;;;;;4991023;28;98578;-72
2022/12/07 07:36:33;;;;;;;11.02;2.92;;;;;;;;;;5004631;28;99038;-73
2022/12/07 07:39:00;;;;;;;10.32;3.05;;;;;;;;;;4995608;28;98473;-73
2022/12/07 07:41:26;;;;;;;5.03;3.00;;;;;;;;;;5003393;28;99376;-72
2022/12/07 07:43:53;;;;;;;5.78;2.55;;;;;;;;;;5001929;28;99042;-72
2022/12/07 07:46:19;;;;;;;10.93;3.72;;;;;;;;;;5004213;28;98248;-73
2022/12/07 07:48:45;;;;;;;15.00;3.63;;;;;;;;;;5001666;28;98918;-72
2022/12/07 07:51:12;;;;;;;8.93;2.85;;;;;;;;;;5009064;28;98312;-72
2022/12/07 07:53:38;;;;;;;12.05;3.20;;;;;;;;;;4997331;28;98562;-72
2022/12/07 07:56:05;;;;;;;7.35;2.80;;;;;;;;;;5002796;28;99112;-72
2022/12/07 07:58:31;;;;;;;10.02;2.90;;;;;;;;;;4998330;28;99052;-72
2022/12/07 08:01:03;;;;;;;10.05;2.85;;;;;;;;;;5004247;28;98916;-73
2022/12/07 08:03:29;;;;;;;13.37;3.50;;;;;;;;;;4985665;28;99015;-73
2022/12/07 08:05:56;;;;;;;14.68;3.25;;;;;;;;;;5001614;28;99829;-72
2022/12/07 08:08:22;;;;;;;12.05;3.67;;;;;;;;;;5001721;28;99792;-71
2022/12/07 08:10:48;;;;;;;12.20;4.22;;;;;;;;;;5008780;28;99935;-74
2022/12/07 08:13:15;;;;;;;8.98;3.28;;;;;;;;;;4996116;28;98570;-71
2022/12/07 08:15:44;;;;;;;9.73;3.10;;;;;;;;;;4993368;28;99244;-72
2022/12/07 08:18:12;;;;;;;12.88;3.40;;;;;;;;;;5005170;28;98299;-71
2022/12/07 08:20:39;;;;;;;11.23;2.90;;;;;;;;;;5002349;28;99571;-71
2022/12/07 08:23:06;;;;;;;9.95;2.83;;;;;;;;;;4989273;28;100224;-71
2022/12/07 08:25:33;;;;;;;13.07;3.67;;;;;;;;;;4986203;28;98451;-71
2022/12/07 08:28:00;;;;;;;8.95;3.53;;;;;;;;;;4991780;28;99723;-71
2022/12/07 08:30:27;;;;;;;11.82;2.90;;;;;;;;;;4987672;28;99319;-72
2022/12/07 08:32:53;;;;;;;4.40;2.78;;;;;;;;;;5002621;28;98387;-72
2022/12/07 08:35:20;;;;;;;7.97;2.50;;;;;;;;;;4985346;28;99295;-71
2022/12/07 08:37:47;;;;;;;11.85;3.50;;;;;;;;;;4995745;28;98376;-70
2022/12/07 08:40:15;;;;;;;7.93;2.63;;;;;;;;;;4997951;28;99463;-71
2022/12/07 08:42:42;;;;;;;6.43;2.53;;;;;;;;;;4995323;28;100117;-71
2022/12/07 08:45:10;;;;;;;15.63;3.33;;;;;;;;;;4993184;28;98290;-70
2022/12/07 08:47:37;;;;;;;11.77;3.20;;;;;;;;;;5001124;28;99711;-71
2022/12/07 08:50:05;;;;;;;7.75;3.25;;;;;;;;;;5001751;28;100171;-71
2022/12/07 08:52:31;;;;;;;8.10;2.75;;;;;;;;;;4993381;28;98323;-71
2022/12/07 08:54:59;;;;;;;7.22;2.85;;;;;;;;;;4990821;28;98987;-70
2022/12/07 08:57:26;;;;;;;15.05;3.58;;;;;;;;;;5004640;28;98679;-71
2022/12/07 08:59:53;;;;;;;7.65;3.38;;;;;;;;;;4996867;28;98986;-71
2022/12/07 09:02:19;;;;;;;10.88;3.53;;;;;;;;;;4993696;28;100325;-71
2022/12/07 09:04:46;;;;;;;4.80;3.00;;;;;;;;;;4994555;28;98776;-71
2022/12/07 09:07:12;;;;;;;8.48;2.97;;;;;;;;;;4999735;28;99577;-70
2022/12/07 09:09:39;;;;;;;4.50;2.50;;;;;;;;;;5001367;28;99033;-72
2022/12/07 09:12:05;;;;;;;9.05;3.47;;;;;;;;;;4998283;28;99748;-70
2022/12/07 09:14:31;;;;;;;5.35;2.50;;;;;;;;;;4996836;28;98660;-70
2022/12/07 09:17:07;;;;;;;11.38;2.88;;;;;;;;;;5004081;28;100056;-71
2022/12/07 09:19:33;;;;;;;10.80;2.28;;;;;;;;;;4991206;28;98975;-70
2022/12/07 09:22:00;;;;;;;6.75;2.53;;;;;;;;;;4997179;28;99057;-71
2022/12/07 09:24:27;;;;;;;10.63;2.40;;;;;;;;;;5002319;28;100031;-69
2022/12/07 09:26:53;;;;;;;13.82;2.90;;;;;;;;;;5001550;28;98949;-70
2022/12/07 09:29:20;;;;;;;8.98;2.78;;;;;;;;;;5003784;28;99162;-70
2022/12/07 09:31:46;;;;;;;7.63;1.95;;;;;;;;;;4995086;28;98255;-70
2022/12/07 09:34:13;;;;;;;3.38;1.98;;;;;;;;;;5003560;28;100185;-70
2022/12/07 09:36:39;;;;;;;12.93;3.83;;;;;;;;;;5000549;28;99507;-70
2022/12/07 09:39:06;;;;;;;9.77;2.75;;;;;;;;;;4994774;28;99787;-70
2022/12/07 09:41:32;;;;;;;10.93;2.78;;;;;;;;;;4995501;28;100491;-70
2022/12/07 09:44:06;;;;;;;5.85;2.33;;;;;;;;;;5000612;28;98326;-70
2022/12/07 09:46:35;;;;;;;8.18;2.50;;;;;;;;;;5001256;28;101249;-70
2022/12/07 09:49:02;;;;;;;11.25;2.60;;;;;;;;;;4997872;28;100353;-70
2022/12/07 09:51:28;;;;;;;9.70;2.58;;;;;;;;;;5006972;28;98249;-70
2022/12/07 09:53:56;;;;;;;14.82;2.60;;;;;;;;;;5004454;28;100142;-71
2022/12/07 09:56:23;;;;;;;8.27;2.13;;;;;;;;;;4996489;28;99912;-72
2022/12/07 09:58:51;;;;;;;3.00;2.05;;;;;;;;;;5006181;28;98514;-70
2022/12/07 10:01:19;;;;;;;6.97;2.00;;;;;;;;;;4998786;28;100096;-71
2022/12/07 10:03:50;;;;;;;5.57;1.88;;;;;;;;;;5007041;28;98239;-71
2022/12/07 10:06:17;;;;;;;22.70;2.55;;;;;;;;;;4999741;28;99498;-71
2022/12/07 10:08:43;;;;;;;5.22;2.17;;;;;;;;;;5000355;28;100030;-71
2022/12/07 10:11:10;;;;;;;8.98;3.28;;;;;;;;;;5006403;28;98208;-71
2022/12/07 10:13:37;;;;;;;7.65;2.08;;;;;;;;;;4993084;28;99496;-71
2022/12/07 10:16:04;;;;;;;5.18;2.03;;;;;;;;;;5003107;28;100060;-71
2022/12/07 10:18:36;;;;;;;4.78;2.38;;;;;;;;;;4991955;28;98334;-71
2022/12/07 10:21:12;;;;;;;7.07;2.17;;;;;;;;;;5002533;28;100517;-71
2022/12/07 10:23:40;;;;;;;3.05;2.10;;;;;;;;;;5002219;28;98389;-70
2022/12/07 10:26:27;;;;;;;2.70;1.60;;;;;;;;;;5001497;28;99497;-71
2022/12/07 10:28:53;;;;;;;3.55;2.05;;;;;;;;;;5004478;28;100068;-72
2022/12/07 10:31:22;;;;;;;10.18;1.92;;;;;;;;;;5002895;28;98956;-70
2022/12/07 10:33:48;;;;;;;8.85;2.22;;;;;;;;;;5004252;28;100509;-72
2022/12/07 10:36:23;;;;;;;8.02;2.30;;;;;;;;;;4998877;28;100293;-72
2022/12/07 10:38:52;;;;;;;12.65;2.20;;;;;;;;;;5003228;28;98744;-72
2022/12/07 10:41:19;;;;;;;6.97;1.98;;;;;;;;;;5003203;28;99637;-70
2022/12/07 10:43:47;;;;;;;4.57;1.92;;;;;;;;;;5000132;28;100180;-71
2022/12/07 10:46:25;;;;;;;6.32;1.92;;;;;;;;;;5000093;28;99846;-70
2022/12/07 10:48:55;;;;;;;8.43;2.28;;;;;;;;;;4994834;28;99102;-72
2022/12/07 10:51:24;;;;;;;9.00;1.70;;;;;;;;;;4991878;28;98321;-70
2022/12/07 10:54:03;;;;;;;6.45;1.88;;;;;;;;;;4998424;28;99518;-70
2022/12/07 10:56:32;;;;;;;14.00;2.38;;;;;;;;;;4996571;28;99353;-70
2022/12/07 10:59:17;;;;;;;8.15;1.95;;;;;;;;;;5004997;28;98299;-70
2022/12/07 11:02:02;;;;;;;7.63;2.00;;;;;;;;;;5001430;28;99371;-71
2022/12/07 11:04:38;;;;;;;12.65;1.98;;;;;;;;;;4994605;28;100248;-71
2022/12/07 11:07:16;;;;;;;13.30;2.75;;;;;;;;;;5007940;28;98337;-70
2022/12/07 11:09:51;;;;;;;3.13;2.05;;;;;;;;;;4998679;28;100423;-70
2022/12/07 11:12:53;;;;;;;4.32;1.60;;;;;;;;;;4996547;28;99007;-71
2022/12/07 11:15:24;;;;;;;6.70;2.35;;;;;;;;;;4987816;28;99620;-71
2022/12/07 11:17:54;;;;;;;7.55;2.47;;;;;;;;;;4990784;28;99937;-72
2022/12/07 11:20:36;;;;;;;3.47;2.20;;;;;;;;;;5004255;28;99131;-71
2022/12/07 11:23:03;;;;;;;7.53;2.20;;;;;;;;;;5005124;28;98975;-73
2022/12/07 11:25:37;;;;;;;8.30;2.45;;;;;;;;;;4994456;28;100062;-71
2022/12/07 11:28:23;;;;;;;5.13;1.95;;;;;;;;;;4996949;28;98944;-72
2022/12/07 11:30:59;;;;;;;10.43;2.25;;;;;;;;;;5005938;28;98168;-71
2022/12/07 11:33:44;;;;;;;8.38;2.83;;;;;;;;;;5003125;28;98429;-72
2022/12/07 11:36:10;;;;;;;10.80;2.63;;;;;;;;;;4997251;28;99517;-71
2022/12/07 11:38:45;;;;;;;7.65;2.30;;;;;;;;;;5004970;28;99069;-70
2022/12/07 11:41:12;;;;;;;11.85;3.03;;;;;;;;;;5002135;28;98340;-71
2022/12/07 11:43:52;;;;;;;8.77;2.50;;;;;;;;;;5002295;28;99535;-71
2022/12/07 11:46:20;;;;;;;7.60;2.58;;;;;;;;;;4993628;28;99031;-71
2022/12/07 11:48:51;;;;;;;10.48;2.17;;;;;;;;;;4995819;28;98329;-72
2022/12/07 11:51:20;;;;;;;13.85;3.08;;;;;;;;;;4992530;28;99341;-72
2022/12/07 11:53:47;;;;;;;8.85;2.50;;;;;;;;;;5010281;28;100254;-72
2022/12/07 11:56:14;;;;;;;11.48;2.85;;;;;;;;;;5004019;28;99441;-72
2022/12/07 11:58:47;;;;;;;58.15;18.80;;;;;;;;;;4994971;28;99028;-73
2022/12/07 12:01:19;;;;;;;11.82;3.63;;;;;;;;;;4990913;28;98591;-72
2022/12/07 12:03:47;;;;;;;6.72;2.33;;;;;;;;;;4998348;28;99526;-72
2022/12/07 12:06:18;;;;;;;6.38;3.10;;;;;;;;;;4999270;28;98924;-72
2022/12/07 12:08:47;;;;;;;5.82;2.05;;;;;;;;;;4995548;28;98482;-72
2022/12/07 12:11:44;;;;;;;7.53;2.58;;;;;;;;;;5001832;28;99028;-72
2022/12/07 12:14:19;;;;;;;14.90;6.45;;;;;;;;;;4997364;28;98934;-71
2022/12/07 12:17:20;;;;;;;13.70;6.03;;;;;;;;;;5001718;28;98378;-72
2022/12/07 12:19:55;;;;;;;8.60;1.85;;;;;;;;;;5003147;28;99152;-72
2022/12/07 12:22:25;;;;;;;7.43;1.48;;;;;;;;;;4996545;28;98285;-73
2022/12/07 12:24:53;;;;;;;9.65;2.03;;;;;;;;;;4996555;28;98961;-73
2022/12/07 12:27:34;;;;;;;5.82;1.70;;;;;;;;;;4995674;28;99127;-72
2022/12/07 12:30:02;;;;;;;8.02;2.00;;;;;;;;;;4988832;28;98951;-73
2022/12/07 12:32:41;;;;;;;6.80;2.50;;;;;;;;;;5000322;28;98634;-73
2022/12/07 12:35:28;;;;;;;8.63;1.75;;;;;;;;;;4991215;28;100002;-72
2022/12/07 12:37:55;;;;;;;5.28;1.70;;;;;;;;;;5002927;28;100118;-72
2022/12/07 12:40:21;;;;;;;5.65;2.40;;;;;;;;;;5004875;28;99333;-73
2022/12/07 12:42:47;;;;;;;5.05;1.80;;;;;;;;;;5002474;28;98432;-75
2022/12/07 12:45:24;;;;;;;5.72;1.90;;;;;;;;;;5000337;28;99281;-73
2022/12/07 12:47:57;;;;;;;4.90;1.65;;;;;;;;;;4992809;28;99025;-73
2022/12/07 12:50:27;;;;;;;6.82;1.80;;;;;;;;;;4999271;28;101188;-74
2022/12/07 12:52:59;;;;;;;5.28;2.15;;;;;;;;;;5003368;28;99731;-73
2022/12/07 12:55:44;;;;;;;4.50;2.03;;;;;;;;;;4997146;28;98951;-73
2022/12/07 12:58:17;;;;;;;4.20;1.65;;;;;;;;;;4988938;28;98639;-72
2022/12/07 13:00:44;;;;;;;4.60;1.40;;;;;;;;;;5001173;28;101120;-72
2022/12/07 13:03:30;;;;;;;7.72;1.50;;;;;;;;;;5003931;28;98294;-72
2022/12/07 13:06:22;;;;;;;1.30;1.02;;;;;;;;;;5006596;28;99567;-72
2022/12/07 13:08:48;;;;;;;2.70;1.17;;;;;;;;;;5001957;28;100211;-72
2022/12/07 13:11:18;;;;;;;2.55;1.20;;;;;;;;;;4994314;28;101206;-73
2022/12/07 13:13:45;;;;;;;4.57;3.45;;;;;;;;;;5006113;28;99136;-72
2022/12/07 13:16:12;;;;;;;1.10;0.90;;;;;;;;;;4993393;28;99020;-72
2022/12/07 13:18:38;;;;;;;16.20;2.05;;;;;;;;;;4994875;28;98259;-75
2022/12/07 13:21:08;;;;;;;46.92;3.78;;;;;;;;;;5007997;28;99743;-72
2022/12/07 13:23:43;;;;;;;8.68;2.00;;;;;;;;;;5008229;28;100115;-72
2022/12/07 13:26:24;;;;;;;5.05;1.25;;;;;;;;;;4987743;28;99532;-73
2022/12/07 13:29:09;;;;;;;7.15;1.27;;;;;;;;;;5005141;28;99564;-74
2022/12/07 13:31:49;;;;;;;6.55;1.65;;;;;;;;;;5001047;28;98622;-74
2022/12/07 13:34:34;;;;;;;3.50;0.90;;;;;;;;;;4989955;28;99717;-73
2022/12/07 13:37:02;;;;;;;2.83;0.88;;;;;;;;;;4999825;28;99212;-73
2022/12/07 13:39:28;;;;;;;1.50;1.33;;;;;;;;;;4998716;28;98518;-73
2022/12/07 13:41:56;;;;;;;5.28;1.20;;;;;;;;;;5004291;28;99390;-73
2022/12/07 13:44:24;;;;;;;3.13;1.02;;;;;;;;;;4996606;28;99651;-73
2022/12/07 13:46:53;;;;;;;1.42;1.15;;;;;;;;;;5005162;28;100055;-73
2022/12/07 13:49:24;;;;;;;3.10;1.45;;;;;;;;;;4993919;28;100027;-74
2022/12/07 13:51:51;;;;;;;3.90;1.92;;;;;;;;;;4999123;28;98361;-72
2022/12/07 13:54:18;;;;;;;7.57;1.85;;;;;;;;;;5000093;28;98964;-72
2022/12/07 13:56:47;;;;;;;20.45;2.53;;;;;;;;;;5001205;28;100048;-72
2022/12/07 13:59:18;;;;;;;5.78;1.83;;;;;;;;;;4995771;28;98415;-72
2022/12/07 14:01:45;;;;;;;5.72;1.85;;;;;;;;;;5001602;28;99642;-72
2022/12/07 14:04:18;;;;;;;6.38;1.50;;;;;;;;;;4996946;28;100223;-73
2022/12/07 14:06:49;;;;;;;4.60;1.90;;;;;;;;;;4998541;28;98839;-72
2022/12/07 14:09:22;;;;;;;2.95;2.03;;;;;;;;;;5008726;28;99540;-72
2022/12/07 14:11:49;;;;;;;7.28;1.77;;;;;;;;;;4994926;28;100061;-73
2022/12/07 14:14:18;;;;;;;4.85;1.98;;;;;;;;;;4991534;28;100129;-73
2022/12/07 14:16:54;;;;;;;7.72;1.80;;;;;;;;;;5007339;28;99934;-71
2022/12/07 14:19:39;;;;;;;9.00;1.92;;;;;;;;;;5002059;28;99443;-72
2022/12/07 14:22:21;;;;;;;11.23;1.80;;;;;;;;;;5001323;28;98454;-74
2022/12/07 14:24:47;;;;;;;4.35;1.50;;;;;;;;;;5000254;28;100195;-74
2022/12/07 14:27:19;;;;;;;7.22;1.67;;;;;;;;;;4988619;28;98549;-72
2022/12/07 14:29:46;;;;;;;4.73;2.07;;;;;;;;;;5004221;28;98852;-73
2022/12/07 14:32:27;;;;;;;9.68;2.00;;;;;;;;;;5002548;28;98339;-72
2022/12/07 14:35:13;;;;;;;5.03;1.70;;;;;;;;;;5000615;28;99462;-71
2022/12/07 14:37:40;;;;;;;3.65;1.48;;;;;;;;;;4998806;28;100114;-71
2022/12/07 14:40:07;;;;;;;3.28;1.40;;;;;;;;;;5000458;28;98606;-71
2022/12/07 14:42:34;;;;;;;9.30;1.38;;;;;;;;;;4993370;28;98599;-72
2022/12/07 14:45:00;;;;;;;3.38;1.73;;;;;;;;;;4988260;28;100031;-71
2022/12/07 14:47:27;;;;;;;15.88;2.08;;;;;;;;;;4996222;28;98263;-72
2022/12/07 14:50:14;;;;;;;8.88;2.17;;;;;;;;;;4997620;28;98633;-71
2022/12/07 14:52:42;;;;;;;11.32;2.47;;;;;;;;;;4990594;28;99119;-72
2022/12/07 14:55:29;;;;;;;6.35;2.58;;;;;;;;;;4995666;28;101103;-72